createdAt,value
2022-11-13T00:00:23.883Z,102134.41
2022-11-13T00:01:10.346Z,102130.00
2022-11-13T00:01:52.213Z,102130.97
2022-11-13T00:02:33.336Z,102133.56
2022-11-13T00:03:15.845Z,102139.75
2022-11-13T00:03:58.485Z,102144.19
2022-11-13T00:04:38.835Z,102135.34
2022-11-13T00:05:20.131Z,102139.78
2022-11-13T00:06:00.942Z,102137.97
2022-11-13T00:06:42.082Z,102137.09
2022-11-13T00:07:22.078Z,102137.00
2022-11-13T00:08:02.496Z,102134.31
2022-11-13T00:08:43.745Z,102134.34
2022-11-13T00:09:23.854Z,102137.00
2022-11-13T00:10:05.226Z,102138.78
2022-11-13T00:10:46.640Z,102141.50
2022-11-13T00:11:26.672Z,102135.25
2022-11-13T00:12:06.954Z,102133.59
2022-11-13T00:12:48.446Z,102134.53
2022-11-13T00:13:30.497Z,102133.66
2022-11-13T00:14:11.907Z,102132.78
2022-11-13T00:14:52.208Z,102126.53
2022-11-13T00:15:32.560Z,102129.25
2022-11-13T00:16:15.647Z,102133.69
2022-11-13T00:16:55.983Z,102132.06
2022-11-13T00:17:37.252Z,102132.03
2022-11-13T00:18:18.735Z,102132.94
2022-11-13T00:19:00.284Z,102125.91
2022-11-13T00:19:40.714Z,102125.91
2022-11-13T00:20:21.135Z,102133.16
2022-11-13T00:21:06.592Z,102133.06
2022-11-13T00:21:46.904Z,102132.06
2022-11-13T00:22:28.352Z,102130.34
2022-11-13T00:23:08.435Z,102133.75
2022-11-13T00:23:50.742Z,102123.91
2022-11-13T00:24:31.493Z,102130.13
2022-11-13T00:25:12.543Z,102131.00
2022-11-13T00:25:52.611Z,102129.22
2022-11-13T00:26:33.949Z,102123.00
2022-11-13T00:27:14.526Z,102138.88
2022-11-13T00:27:54.776Z,102129.22
2022-11-13T00:28:37.320Z,102125.66
2022-11-13T00:29:17.584Z,102122.06
2022-11-13T00:29:58.897Z,102128.19
2022-11-13T00:30:38.972Z,102127.31
2022-11-13T00:31:20.466Z,102128.22
2022-11-13T00:32:00.663Z,102131.75
2022-11-13T00:32:40.991Z,102127.31
2022-11-13T00:33:45.240Z,102125.47
2022-11-13T00:34:46.660Z,102121.94
2022-11-13T00:35:25.441Z,102122.00
2022-11-13T00:36:08.530Z,102125.56
2022-11-13T00:36:49.876Z,102119.38
2022-11-13T00:37:30.102Z,102114.03
2022-11-13T00:38:10.240Z,102118.50
2022-11-13T00:38:51.919Z,102109.69
2022-11-13T00:39:32.218Z,102122.03
2022-11-13T00:40:12.632Z,102114.91
2022-11-13T00:40:54.017Z,102102.59
2022-11-13T00:41:34.024Z,102115.81
2022-11-13T00:42:14.432Z,102106.97
2022-11-13T00:42:55.739Z,102115.00
2022-11-13T00:43:35.674Z,102116.72
2022-11-13T00:44:17.140Z,102105.41
2022-11-13T00:44:57.149Z,102115.94
2022-11-13T00:45:37.551Z,102110.66
2022-11-13T00:46:19.012Z,102110.69
2022-11-13T00:46:59.396Z,102116.88
2022-11-13T00:47:40.866Z,102101.78
2022-11-13T00:48:22.344Z,102100.88
2022-11-13T00:49:02.661Z,102112.28
2022-11-13T00:49:43.752Z,102107.03
2022-11-13T00:50:24.282Z,102103.47
2022-11-13T00:51:04.940Z,102102.66
2022-11-13T00:51:46.020Z,102094.84
2022-11-13T00:52:26.060Z,102098.25
2022-11-13T00:53:06.562Z,102099.13
2022-11-13T00:53:47.937Z,102103.53
2022-11-13T00:54:28.399Z,102096.53
2022-11-13T00:55:08.938Z,102099.13
2022-11-13T00:55:50.988Z,102098.34
2022-11-13T00:56:31.082Z,102100.25
2022-11-13T00:57:12.401Z,102103.00
2022-11-13T00:57:52.646Z,102091.81
2022-11-13T00:58:34.130Z,102092.56
2022-11-13T00:59:14.262Z,102096.03
2022-11-13T00:59:55.643Z,102100.44
2022-11-13T01:00:35.699Z,102101.25
2022-11-13T01:01:19.203Z,102100.41
2022-11-13T01:02:00.324Z,102092.41
2022-11-13T01:02:40.500Z,102095.00
2022-11-13T01:03:23.244Z,102089.66
2022-11-13T01:04:03.539Z,102092.31
2022-11-13T01:04:44.794Z,102093.13
2022-11-13T01:05:25.402Z,102089.59
2022-11-13T01:06:11.122Z,102085.16
2022-11-13T01:06:52.353Z,102084.28
2022-11-13T01:07:32.439Z,102089.69
2022-11-13T01:08:14.766Z,102089.69
2022-11-13T01:08:56.764Z,102085.16
2022-11-13T01:09:37.036Z,102086.06
2022-11-13T01:10:18.441Z,102085.22
2022-11-13T01:10:58.408Z,102080.81
2022-11-13T01:11:40.027Z,102082.50
2022-11-13T01:12:20.400Z,102088.72
2022-11-13T01:13:01.718Z,102086.91
2022-11-13T01:13:43.319Z,102093.97
2022-11-13T01:14:24.633Z,102087.81
2022-11-13T01:15:05.503Z,102082.56
2022-11-13T01:15:45.545Z,102086.94
2022-11-13T01:16:28.674Z,102091.38
2022-11-13T01:17:08.951Z,102083.38
2022-11-13T01:17:49.564Z,102083.38
2022-11-13T01:18:32.012Z,102092.28
2022-11-13T01:19:12.095Z,102074.59
2022-11-13T01:19:53.431Z,102084.28
2022-11-13T01:20:33.710Z,102064.00
2022-11-13T01:21:17.059Z,102078.00
2022-11-13T01:21:57.001Z,102089.50
2022-11-13T01:22:37.611Z,102078.06
2022-11-13T01:23:18.899Z,102085.97
2022-11-13T01:23:59.159Z,102069.19
2022-11-13T01:24:39.642Z,102082.41
2022-11-13T01:25:20.869Z,102074.53
2022-11-13T01:26:06.306Z,102079.81
2022-11-13T01:26:47.746Z,102081.53
2022-11-13T01:27:28.121Z,102084.25
2022-11-13T01:28:09.696Z,102082.47
2022-11-13T01:28:50.637Z,102074.69
2022-11-13T01:31:03.559Z,102063.94
2022-11-13T01:33:00.364Z,102070.09
2022-11-13T01:40:44.998Z,102078.53
2022-11-13T01:48:48.163Z,102056.66
2022-11-13T01:50:58.113Z,102069.91
2022-11-13T01:51:41.333Z,102067.31
2022-11-13T01:52:25.882Z,102068.06
2022-11-13T01:53:07.515Z,102061.78
2022-11-13T01:53:48.516Z,102067.97
2022-11-13T01:54:33.208Z,102062.66
2022-11-13T01:55:19.290Z,102055.59
2022-11-13T01:55:59.757Z,102058.19
2022-11-13T01:56:42.222Z,102055.66
2022-11-13T01:57:23.200Z,102055.69
2022-11-13T01:58:06.305Z,102060.13
2022-11-13T01:58:52.475Z,102054.75
2022-11-13T01:59:36.124Z,102056.59
2022-11-13T02:00:17.597Z,102053.03
2022-11-13T02:11:27.802Z,102038.84
2022-11-13T02:12:12.802Z,102042.47
2022-11-13T02:12:54.120Z,102038.94
2022-11-13T02:13:35.409Z,102042.53
2022-11-13T02:14:18.078Z,102039.00
2022-11-13T02:15:01.830Z,102044.28
2022-11-13T02:15:44.634Z,102040.75
2022-11-13T02:16:26.206Z,102047.72
2022-11-13T02:17:09.917Z,102044.25
2022-11-13T02:17:55.302Z,102043.41
2022-11-13T02:18:37.499Z,102044.34
2022-11-13T02:19:25.716Z,102045.19
2022-11-13T02:20:08.171Z,102028.34
2022-11-13T02:20:57.456Z,102038.03
2022-11-13T02:21:44.487Z,102040.69
2022-11-13T02:22:34.009Z,102026.59
2022-11-13T02:23:21.030Z,102033.59
2022-11-13T02:24:16.736Z,102037.06
2022-11-13T02:24:59.949Z,102037.16
2022-11-13T02:25:44.645Z,102035.34
2022-11-13T02:26:26.585Z,102037.06
2022-11-13T02:27:11.961Z,102030.94
2022-11-13T02:27:52.539Z,102025.63
2022-11-13T02:28:32.942Z,102030.97
2022-11-13T02:29:14.532Z,102030.06
2022-11-13T02:29:55.092Z,102024.78
2022-11-13T02:30:37.587Z,102016.81
2022-11-13T02:31:18.310Z,102025.69
2022-11-13T02:42:59.271Z,102012.66
2022-11-13T02:43:39.608Z,102010.03
2022-11-13T02:44:20.252Z,102016.25
2022-11-13T02:45:02.351Z,102013.53
2022-11-13T02:45:42.866Z,102010.94
2022-11-13T02:46:23.235Z,102007.47
2022-11-13T02:47:04.827Z,102001.28
2022-11-13T02:47:45.582Z,102005.78
2022-11-13T02:48:27.644Z,101998.66
2022-11-13T02:49:08.619Z,102003.03
2022-11-13T02:49:49.278Z,101993.25
2022-11-13T02:50:31.068Z,102000.34
2022-11-13T02:51:13.043Z,102010.03
2022-11-13T02:51:54.420Z,102002.00
2022-11-13T02:52:35.009Z,102003.75
2022-11-13T03:02:29.195Z,101988.78
2022-11-13T03:14:12.298Z,101979.41
2022-11-13T03:14:54.376Z,101995.31
2022-11-13T03:15:34.932Z,101988.28
2022-11-13T03:16:17.855Z,101998.91
2022-11-13T03:16:58.753Z,101979.56
2022-11-13T03:17:39.275Z,101993.66
2022-11-13T03:18:20.718Z,101987.47
2022-11-13T03:19:01.059Z,101997.16
2022-11-13T03:19:41.163Z,101996.22
2022-11-13T03:20:23.021Z,101987.28
2022-11-13T03:21:07.321Z,101986.44
2022-11-13T03:21:48.931Z,101989.97
2022-11-13T03:22:29.194Z,101994.41
2022-11-13T03:23:10.183Z,101991.69
2022-11-13T03:23:51.166Z,101988.13
2022-11-13T03:36:35.803Z,101987.56
2022-11-13T03:37:37.752Z,101990.22
2022-11-13T03:40:54.444Z,101991.09
2022-11-13T03:42:39.957Z,101992.88
2022-11-13T03:47:33.019Z,101966.56
2022-11-13T03:52:50.952Z,101985.84
2022-11-13T03:53:58.089Z,101975.41
2022-11-13T03:54:58.029Z,101969.31
2022-11-13T03:56:09.023Z,101957.84
2022-11-13T03:57:54.805Z,101989.69
2022-11-13T04:00:37.861Z,101977.53
2022-11-13T04:02:23.008Z,101955.44
2022-11-13T04:15:56.909Z,101965.31
2022-11-13T04:16:37.738Z,101959.00
2022-11-13T04:17:19.007Z,101969.56
2022-11-13T04:17:59.226Z,101961.88
2022-11-13T04:18:40.514Z,101957.44
2022-11-13T04:19:20.706Z,101965.25
2022-11-13T04:20:02.403Z,101971.41
2022-11-13T04:20:43.069Z,101966.97
2022-11-13T04:21:24.585Z,101961.84
2022-11-13T04:22:05.329Z,101966.97
2022-11-13T04:22:45.640Z,101963.47
2022-11-13T04:23:27.310Z,101959.06
2022-11-13T04:24:07.795Z,101966.03
2022-11-13T04:24:48.383Z,101965.13
2022-11-13T04:25:30.128Z,101959.81
2022-11-13T04:26:10.946Z,101967.72
2022-11-13T04:39:54.583Z,101930.34
2022-11-13T04:40:37.299Z,101937.25
2022-11-13T04:47:31.599Z,101947.47
2022-11-13T04:48:11.495Z,101938.66
2022-11-13T04:48:54.318Z,101941.47
2022-11-13T04:49:34.610Z,101942.50
2022-11-13T04:50:17.560Z,101936.22
2022-11-13T04:50:57.794Z,101936.09
2022-11-13T04:51:39.045Z,101920.97
2022-11-13T04:52:19.576Z,101926.41
2022-11-13T04:53:00.949Z,101920.41
2022-11-13T04:53:41.911Z,101933.63
2022-11-13T04:54:28.494Z,101929.16
2022-11-13T04:55:10.821Z,101936.22
2022-11-13T04:55:53.421Z,101916.69
2022-11-13T04:56:33.768Z,101921.88
2022-11-13T04:57:14.645Z,101930.63
2022-11-13T05:07:54.299Z,101916.56
2022-11-13T05:08:35.595Z,101911.22
2022-11-13T05:09:20.067Z,101917.56
2022-11-13T05:10:03.353Z,101914.91
2022-11-13T05:10:46.000Z,101911.44
2022-11-13T05:11:31.051Z,101912.25
2022-11-13T05:12:15.484Z,101909.59
2022-11-13T05:12:57.216Z,101919.41
2022-11-13T05:13:43.455Z,101902.66
2022-11-13T05:14:26.326Z,101908.78
2022-11-13T05:15:12.537Z,101909.66
2022-11-13T05:16:04.814Z,101907.97
2022-11-13T05:16:54.283Z,101910.53
2022-11-13T05:17:36.392Z,101907.16
2022-11-13T05:28:53.692Z,101905.75
2022-11-13T05:29:38.471Z,101910.06
2022-11-13T05:30:28.934Z,101904.69
2022-11-13T05:31:16.450Z,101909.88
2022-11-13T05:32:01.618Z,101894.03
2022-11-13T05:32:43.587Z,101897.47
2022-11-13T05:33:26.485Z,101893.13
2022-11-13T05:34:13.101Z,101897.34
2022-11-13T05:34:54.081Z,101901.88
2022-11-13T05:35:39.832Z,101906.31
2022-11-13T05:36:26.287Z,101898.41
2022-11-13T05:37:10.295Z,101902.97
2022-11-13T05:37:55.459Z,101901.19
2022-11-13T05:38:40.411Z,101903.75
2022-11-13T05:39:21.672Z,101906.47
2022-11-13T05:40:02.430Z,101900.25
2022-11-13T05:40:43.865Z,101897.53
2022-11-13T05:41:24.659Z,101908.03
2022-11-13T05:42:07.063Z,101905.38
2022-11-13T05:42:47.400Z,101908.91
2022-11-13T05:43:27.775Z,101901.81
2022-11-13T05:44:10.714Z,101907.13
2022-11-13T05:44:51.169Z,101901.00
2022-11-13T05:45:32.681Z,101900.13
2022-11-13T05:46:16.544Z,101901.06
2022-11-13T05:46:58.016Z,101895.81
2022-11-13T05:47:38.631Z,101893.09
2022-11-13T05:48:19.095Z,101897.47
2022-11-13T05:49:02.575Z,101903.72
2022-11-13T05:49:43.000Z,101901.91
2022-11-13T05:50:24.588Z,101891.28
2022-11-13T05:51:07.794Z,101895.75
2022-11-13T05:51:50.066Z,101889.63
2022-11-13T05:52:30.364Z,101894.00
2022-11-13T05:53:11.954Z,101894.19
2022-11-13T05:53:53.050Z,101886.09
2022-11-13T05:54:33.506Z,101886.13
2022-11-13T05:55:15.198Z,101887.94
2022-11-13T05:56:00.341Z,101884.31
2022-11-13T05:56:41.565Z,101883.41
2022-11-13T05:57:22.060Z,101876.31
2022-11-13T05:58:02.529Z,101888.66
2022-11-13T05:58:45.066Z,101879.81
2022-11-13T05:59:27.209Z,101876.22
2022-11-13T06:00:08.657Z,101876.22
2022-11-13T06:00:50.365Z,101877.03
2022-11-13T06:01:33.173Z,101868.16
2022-11-13T06:02:14.832Z,101868.16
2022-11-13T06:02:56.453Z,101879.63
2022-11-13T06:03:37.214Z,101874.31
2022-11-13T06:04:19.032Z,101874.44
2022-11-13T06:04:59.657Z,101871.78
2022-11-13T06:05:40.228Z,101853.25
2022-11-13T06:06:22.960Z,101871.75
2022-11-13T06:07:03.430Z,101879.69
2022-11-13T06:07:43.983Z,101872.63
2022-11-13T06:08:25.597Z,101871.84
2022-11-13T06:09:06.606Z,101870.97
2022-11-13T06:09:48.843Z,101877.16
2022-11-13T06:10:29.109Z,101864.88
2022-11-13T06:11:12.231Z,101867.53
2022-11-13T06:11:52.942Z,101854.22
2022-11-13T06:12:34.987Z,101856.00
2022-11-13T06:13:15.649Z,101867.41
2022-11-13T06:13:59.077Z,101858.56
2022-11-13T06:14:40.741Z,101858.50
2022-11-13T06:15:22.062Z,101859.34
2022-11-13T06:16:04.081Z,101855.03
2022-11-13T06:16:45.638Z,101850.59
2022-11-13T06:17:26.260Z,101854.13
2022-11-13T06:18:07.013Z,101838.28
2022-11-13T06:18:49.412Z,101853.44
2022-11-13T06:19:29.678Z,101851.69
2022-11-13T06:20:10.512Z,101857.00
2022-11-13T06:20:52.224Z,101848.22
2022-11-13T06:21:34.821Z,101850.00
2022-11-13T06:22:16.035Z,101837.59
2022-11-13T06:22:57.955Z,101833.97
2022-11-13T06:23:39.460Z,101850.69
2022-11-13T06:24:20.500Z,101840.09
2022-11-13T06:25:00.652Z,101843.59
2022-11-13T06:25:41.242Z,101832.94
2022-11-13T06:26:25.248Z,101832.94
2022-11-13T06:27:05.786Z,101846.25
2022-11-13T06:27:46.203Z,101838.25
2022-11-13T06:28:27.866Z,101825.88
2022-11-13T06:29:12.116Z,101831.19
2022-11-13T06:29:54.961Z,101831.97
2022-11-13T06:30:35.335Z,101830.25
2022-11-13T06:31:21.754Z,101831.19
2022-11-13T06:32:04.388Z,101830.22
2022-11-13T06:51:54.479Z,101812.81
2022-11-13T06:52:35.358Z,101832.22
2022-11-13T06:53:15.899Z,101823.34
2022-11-13T06:53:58.244Z,101826.84
2022-11-13T06:54:38.849Z,101828.72
2022-11-13T06:55:20.027Z,101833.13
2022-11-13T06:56:01.024Z,101835.69
2022-11-13T06:56:45.399Z,101828.66
2022-11-13T06:57:25.740Z,101832.16
2022-11-13T06:58:06.928Z,101837.59
2022-11-13T06:58:47.683Z,101830.66
2022-11-13T06:59:29.038Z,101830.56
2022-11-13T07:00:11.175Z,101835.91
2022-11-13T07:00:52.976Z,101835.81
2022-11-13T07:01:33.391Z,101835.81
2022-11-13T07:02:13.875Z,101840.19
2022-11-13T07:02:55.206Z,101839.34
2022-11-13T07:03:36.182Z,101843.84
2022-11-13T07:04:17.608Z,101835.81
2022-11-13T07:04:57.845Z,101845.50
2022-11-13T07:05:39.835Z,101843.09
2022-11-13T07:06:22.435Z,101842.16
2022-11-13T07:07:05.129Z,101840.44
2022-11-13T07:07:45.307Z,101838.59
2022-11-13T07:08:25.618Z,101829.81
2022-11-13T07:09:07.234Z,101841.28
2022-11-13T07:09:47.953Z,101830.66
2022-11-13T07:10:28.440Z,101847.41
2022-11-13T07:11:12.443Z,101834.13
2022-11-13T07:11:52.812Z,101842.09
2022-11-13T07:12:33.188Z,101834.16
2022-11-13T07:23:16.869Z,101847.34
2022-11-13T07:23:57.612Z,101841.19
2022-11-13T07:24:38.879Z,101832.28
2022-11-13T07:25:19.101Z,101836.78
2022-11-13T07:25:59.446Z,101833.22
2022-11-13T07:26:40.928Z,101829.63
2022-11-13T07:27:21.282Z,101837.59
2022-11-13T07:28:02.966Z,101841.06
2022-11-13T07:28:43.773Z,101829.56
2022-11-13T07:29:25.075Z,101825.13
2022-11-13T07:30:06.348Z,101826.84
2022-11-13T07:30:46.698Z,101832.13
2022-11-13T07:31:28.265Z,101831.19
2022-11-13T07:32:09.024Z,101828.59
2022-11-13T07:32:50.184Z,101831.25
2022-11-13T07:35:01.601Z,101825.88
2022-11-13T07:37:06.601Z,101829.47
2022-11-13T07:38:49.995Z,101828.72
2022-11-13T07:39:32.141Z,101818.00
2022-11-13T07:40:12.933Z,101805.66
2022-11-13T07:41:06.997Z,101816.13
2022-11-13T07:41:52.950Z,101810.00
2022-11-13T07:42:47.791Z,101819.72
2022-11-13T07:43:51.692Z,101814.31
2022-11-13T07:44:53.411Z,101824.94
2022-11-13T07:45:33.515Z,101816.13
2022-11-13T07:46:15.391Z,101810.75
2022-11-13T07:46:55.653Z,101818.66
2022-11-13T07:47:36.170Z,101814.22
2022-11-13T07:48:18.855Z,101810.63
2022-11-13T07:48:59.214Z,101796.44
2022-11-13T07:49:41.085Z,101804.34
2022-11-13T07:50:22.059Z,101806.25
2022-11-13T07:51:04.012Z,101801.72
2022-11-13T07:51:44.496Z,101802.47
2022-11-13T07:52:25.704Z,101805.97
2022-11-13T07:53:08.291Z,101812.16
2022-11-13T07:53:51.616Z,101808.53
2022-11-13T07:54:36.942Z,101807.56
2022-11-13T07:55:54.542Z,101805.69
2022-11-13T07:56:36.018Z,101809.16
2022-11-13T07:57:24.404Z,101807.38
2022-11-13T07:58:14.240Z,101801.06
2022-11-13T07:59:07.820Z,101803.69
2022-11-13T07:59:56.668Z,101808.97
2022-11-13T08:01:34.542Z,101808.00
2022-11-13T08:02:31.169Z,101816.78
2022-11-13T08:03:23.653Z,101805.16
2022-11-13T08:04:05.187Z,101816.75
2022-11-13T08:04:46.534Z,101813.13
2022-11-13T08:05:26.743Z,101814.03
2022-11-13T08:06:09.476Z,101802.56
2022-11-13T08:06:49.874Z,101810.47
2022-11-13T08:07:31.192Z,101817.44
2022-11-13T08:08:13.096Z,101819.16
2022-11-13T08:08:56.047Z,101823.56
2022-11-13T08:09:36.321Z,101821.78
2022-11-13T08:10:19.771Z,101819.97
2022-11-13T08:11:05.228Z,101816.47
2022-11-13T08:11:47.118Z,101813.91
2022-11-13T08:12:27.383Z,101816.47
2022-11-13T08:13:11.393Z,101811.97
2022-11-13T08:13:52.438Z,101817.31
2022-11-13T08:14:34.144Z,101815.53
2022-11-13T08:15:15.089Z,101819.06
2022-11-13T08:15:59.532Z,101812.03
2022-11-13T08:16:40.476Z,101814.66
2022-11-13T08:17:21.877Z,101812.84
2022-11-13T08:18:04.282Z,101816.38
2022-11-13T08:18:45.934Z,101811.00
2022-11-13T08:19:26.178Z,101813.63
2022-11-13T08:20:08.178Z,101817.09
2022-11-13T08:20:49.149Z,101817.06
2022-11-13T08:21:29.595Z,101802.84
2022-11-13T08:22:11.236Z,101811.69
2022-11-13T08:22:52.154Z,101808.06
2022-11-13T08:23:33.633Z,101808.91
2022-11-13T08:24:15.284Z,101809.75
2022-11-13T08:24:56.724Z,101805.38
2022-11-13T08:25:37.331Z,101807.13
2022-11-13T08:26:19.284Z,101806.19
2022-11-13T08:26:59.706Z,101803.59
2022-11-13T08:27:40.028Z,101799.97
2022-11-13T08:28:21.385Z,101799.88
2022-11-13T08:29:01.553Z,101803.44
2022-11-13T08:29:43.457Z,101800.84
2022-11-13T08:30:26.066Z,101794.72
2022-11-13T08:31:12.330Z,101797.31
2022-11-13T08:31:52.785Z,101795.53
2022-11-13T08:32:34.576Z,101792.00
2022-11-13T08:33:14.589Z,101795.50
2022-11-13T08:33:56.024Z,101789.34
2022-11-13T08:34:37.239Z,101786.66
2022-11-13T08:35:19.706Z,101794.47
2022-11-13T08:36:16.466Z,101789.88
2022-11-13T08:46:47.354Z,101766.13
2022-11-13T08:47:29.666Z,101758.13
2022-11-13T08:48:11.426Z,101764.28
2022-11-13T08:48:51.881Z,101759.03
2022-11-13T08:49:33.687Z,101766.91
2022-11-13T08:50:14.583Z,101762.47
2022-11-13T08:50:57.344Z,101767.84
2022-11-13T08:51:38.088Z,101760.63
2022-11-13T08:52:19.244Z,101759.75
2022-11-13T08:53:01.148Z,101765.03
2022-11-13T08:53:42.938Z,101756.91
2022-11-13T08:54:23.253Z,101762.91
2022-11-13T08:55:05.556Z,101764.59
2022-11-13T08:55:45.899Z,101770.59
2022-11-13T08:56:26.359Z,101758.13
2022-11-13T08:57:07.804Z,101763.31
2022-11-13T08:57:48.528Z,101761.47
2022-11-13T08:58:29.052Z,101756.13
2022-11-13T08:59:11.301Z,101764.84
2022-11-13T08:59:51.682Z,101764.72
2022-11-13T09:00:34.267Z,101762.75
2022-11-13T09:01:14.516Z,101750.25
2022-11-13T09:01:59.330Z,101764.25
2022-11-13T09:02:39.499Z,101767.69
2022-11-13T09:03:21.041Z,101762.34
2022-11-13T09:04:02.803Z,101764.13
2022-11-13T09:04:44.346Z,101763.13
2022-11-13T09:05:25.384Z,101748.19
2022-11-13T09:06:07.363Z,101759.50
2022-11-13T09:06:47.450Z,101755.75
2022-11-13T09:07:29.065Z,101761.00
2022-11-13T09:08:10.598Z,101751.66
2022-11-13T09:08:52.020Z,101746.44
2022-11-13T09:09:33.199Z,101752.34
2022-11-13T09:10:13.864Z,101759.06
2022-11-13T09:10:56.749Z,101740.50
2022-11-13T09:11:37.034Z,101751.94
2022-11-13T09:12:18.471Z,101753.66
2022-11-13T09:13:01.513Z,101749.94
2022-11-13T09:13:45.147Z,101752.50
2022-11-13T09:14:28.120Z,101756.72
2022-11-13T09:15:11.018Z,101757.50
2022-11-13T09:15:51.672Z,101739.03
2022-11-13T09:16:34.681Z,101755.59
2022-11-13T09:17:16.388Z,101757.72
2022-11-13T09:30:51.225Z,101750.72
2022-11-13T09:31:33.937Z,101746.25
2022-11-13T09:38:18.705Z,101755.28
2022-11-13T09:39:00.864Z,101749.06
2022-11-13T09:39:42.271Z,101753.41
2022-11-13T09:40:29.228Z,101747.88
2022-11-13T09:41:12.760Z,101745.44
2022-11-13T09:41:57.589Z,101749.69
2022-11-13T09:42:40.374Z,101739.03
2022-11-13T09:43:29.674Z,101744.47
2022-11-13T09:44:16.767Z,101745.25
2022-11-13T09:45:03.963Z,101747.88
2022-11-13T09:45:44.545Z,101743.44
2022-11-13T09:46:41.771Z,101742.63
2022-11-13T09:47:26.224Z,101734.63
2022-11-13T09:48:20.173Z,101732.75
2022-11-13T09:49:06.883Z,101737.00
2022-11-13T09:49:51.594Z,101739.69
2022-11-13T09:50:32.403Z,101740.59
2022-11-13T09:51:16.753Z,101732.59
2022-11-13T09:52:06.586Z,101730.69
2022-11-13T09:52:49.191Z,101736.91
2022-11-13T09:53:34.561Z,101736.88
2022-11-13T09:54:17.149Z,101726.16
2022-11-13T09:54:58.553Z,101734.88
2022-11-13T09:55:49.548Z,101742.00
2022-11-13T09:56:34.060Z,101744.59
2022-11-13T09:57:27.713Z,101743.78
2022-11-13T09:58:18.787Z,101735.88
2022-11-13T09:59:21.358Z,101733.22
2022-11-13T10:00:30.346Z,101724.03
2022-11-13T10:01:50.923Z,101732.63
2022-11-13T10:03:05.269Z,101727.56
2022-11-13T10:04:32.690Z,101732.94
2022-11-13T10:05:24.515Z,101736.09
2022-11-13T10:09:26.408Z,101711.88
2022-11-13T10:10:43.923Z,101729.19
2022-11-13T10:11:40.767Z,101725.28
2022-11-13T10:12:23.230Z,101731.44
2022-11-13T10:13:05.067Z,101728.69
2022-11-13T10:13:48.596Z,101726.88
2022-11-13T10:14:36.361Z,101725.03
2022-11-13T10:15:19.145Z,101730.38
2022-11-13T10:16:06.692Z,101723.41
2022-11-13T10:16:54.180Z,101730.63
2022-11-13T10:17:38.651Z,101723.84
2022-11-13T10:18:23.720Z,101723.66
2022-11-13T10:19:13.630Z,101722.69
2022-11-13T10:24:38.633Z,101705.63
2022-11-13T10:41:13.838Z,101698.91
2022-11-13T10:41:55.618Z,101690.00
2022-11-13T10:42:41.061Z,101694.84
2022-11-13T10:43:23.348Z,101693.03
2022-11-13T10:44:18.844Z,101695.47
2022-11-13T10:45:00.860Z,101699.63
2022-11-13T10:45:43.051Z,101686.31
2022-11-13T10:46:25.795Z,101688.81
2022-11-13T10:47:15.807Z,101678.00
2022-11-13T10:48:04.398Z,101692.63
2022-11-13T10:48:46.461Z,101681.50
2022-11-13T10:49:29.190Z,101681.41
2022-11-13T10:50:12.253Z,101664.09
2022-11-13T10:50:55.382Z,101676.75
2022-11-13T11:01:46.138Z,101660.25
2022-11-13T11:02:27.838Z,101654.69
2022-11-13T11:03:10.550Z,101646.63
2022-11-13T11:03:51.204Z,101648.66
2022-11-13T11:04:32.827Z,101645.28
2022-11-13T11:05:18.664Z,101640.69
2022-11-13T11:06:02.134Z,101649.56
2022-11-13T11:07:17.939Z,101647.75
2022-11-13T11:07:44.853Z,101632.50
2022-11-13T11:08:31.286Z,101642.38
2022-11-13T11:09:23.156Z,101641.25
2022-11-13T11:10:04.011Z,101634.41
2022-11-13T11:11:13.445Z,101636.63
2022-11-13T11:14:38.820Z,101627.72
2022-11-13T11:15:46.543Z,101632.69
2022-11-13T11:17:12.305Z,101626.09
2022-11-13T11:18:36.085Z,101627.31
2022-11-13T11:19:33.765Z,101629.69
2022-11-13T11:33:31.870Z,101600.91
2022-11-13T11:34:18.774Z,101595.75
2022-11-13T11:35:06.203Z,101603.22
2022-11-13T11:35:52.480Z,101596.84
2022-11-13T11:36:37.840Z,101592.53
2022-11-13T11:37:20.642Z,101597.03
2022-11-13T11:38:09.984Z,101595.28
2022-11-13T11:38:56.989Z,101599.84
2022-11-13T11:39:44.623Z,101598.97
2022-11-13T11:40:33.028Z,101594.59
2022-11-13T11:41:17.078Z,101589.38
2022-11-13T11:42:06.618Z,101587.44
2022-11-13T11:42:55.045Z,101586.56
2022-11-13T11:54:42.424Z,101548.50
2022-11-13T11:55:46.074Z,101556.38
2022-11-13T11:56:32.645Z,101563.25
2022-11-13T11:57:29.680Z,101565.53
2022-11-13T11:58:22.383Z,101563.84
2022-11-13T11:59:12.492Z,101559.13
2022-11-13T12:00:04.897Z,101558.47
2022-11-13T12:00:50.356Z,101558.84
2022-11-13T12:01:45.685Z,101564.53
2022-11-13T12:02:53.096Z,101556.41
2022-11-13T12:03:49.821Z,101555.91
2022-11-13T12:04:43.587Z,101548.53
2022-11-13T12:05:29.638Z,101552.88
2022-11-13T12:06:19.586Z,101550.94
2022-11-13T12:07:14.726Z,101556.66
2022-11-13T12:08:15.061Z,101554.38
2022-11-13T12:09:08.742Z,101550.63
2022-11-13T12:09:57.385Z,101550.38
2022-11-13T12:10:44.804Z,101552.53
2022-11-13T12:11:29.595Z,101537.94
2022-11-13T12:12:23.643Z,101551.34
2022-11-13T12:13:29.183Z,101526.75
2022-11-13T12:14:24.451Z,101548.16
2022-11-13T12:15:12.129Z,101549.44
2022-11-13T12:16:01.046Z,101547.91
2022-11-13T12:16:52.981Z,101548.69
2022-11-13T12:17:46.138Z,101531.47
2022-11-13T12:18:37.144Z,101545.88
2022-11-13T12:19:24.438Z,101518.44
2022-11-13T12:20:18.995Z,101537.69
2022-11-13T12:21:12.038Z,101532.25
2022-11-13T12:22:03.960Z,101535.00
2022-11-13T12:22:53.520Z,101533.22
2022-11-13T12:23:53.947Z,101527.47
2022-11-13T12:24:59.512Z,101525.34
2022-11-13T12:25:52.157Z,101527.13
2022-11-13T12:26:41.770Z,101527.16
2022-11-13T12:27:32.525Z,101527.16
2022-11-13T12:28:21.101Z,101523.22
2022-11-13T12:29:13.232Z,101521.41
2022-11-13T12:30:05.134Z,101479.38
2022-11-13T12:30:57.771Z,101507.25
2022-11-13T12:31:50.036Z,101509.44
2022-11-13T12:32:40.810Z,101503.66
2022-11-13T12:33:35.299Z,101509.06
2022-11-13T12:34:24.769Z,101505.94
2022-11-13T12:35:11.275Z,101511.88
2022-11-13T12:35:53.729Z,101507.91
2022-11-13T12:36:37.233Z,101476.34
2022-11-13T12:37:26.905Z,101502.44
2022-11-13T12:38:18.150Z,101498.22
2022-11-13T12:39:06.155Z,101502.63
2022-11-13T12:39:55.899Z,101495.59
2022-11-13T12:40:44.629Z,101503.91
2022-11-13T12:41:35.339Z,101496.84
2022-11-13T12:42:22.638Z,101498.19
2022-11-13T12:43:25.338Z,101493.09
2022-11-13T12:44:22.019Z,101475.19
2022-11-13T12:45:11.206Z,101487.53
2022-11-13T12:45:53.493Z,101491.22
2022-11-13T12:46:37.435Z,101479.94
2022-11-13T12:47:18.087Z,101486.69
2022-11-13T12:48:09.187Z,101473.66
2022-11-13T12:48:49.382Z,101482.56